Home > Products > Valid Products > MTR

000
SAUS41 KCAR 011057
MTRGNR
METAR KGNR 011056Z AUTO VRB04KT 02/M01 A2999 RMK AO1 SLP171
T00221006





000
SAUS41 KCAR 010958
MTRGNR
METAR KGNR 010956Z AUTO 05007KT 03/M01 A3001 RMK AO1 SLP176
T00281006





000
SAUS41 KCAR 010857
MTRGNR
METAR KGNR 010856Z AUTO 05006KT 03/M01 A2999 RMK AO1 SLP169
T00281006 56010





000
SAUS41 KCAR 010758
MTRGNR
METAR KGNR 010756Z AUTO 07009KT 03/M01 A2999 RMK AO1 SLP170
T00281006





000
SAUS41 KCAR 010657
MTRGNR
METAR KGNR 010656Z AUTO 07006KT 03/M01 A3001 RMK AO1 SLP176
T00331011





000
SAUS41 KCAR 010557
MTRGNR
METAR KGNR 010556Z AUTO 06008KT 03/M01 A3002 RMK AO1 SLP179
T00281011 10039 20022 55006





000
SAUS41 KCAR 010458
MTRGNR
METAR KGNR 010456Z AUTO 04007KT 03/M02 A3001 RMK AO1 SLP176
T00331017 400611006





000
SAUS41 KCAR 010357
MTRGNR
METAR KGNR 010356Z AUTO 35003KT 03/M02 A3002 RMK AO1 SLP180
T00331017





000
SAUS41 KCAR 010357
MTRGNR
METAR KGNR 010356Z AUTO 35003KT 03/M02 A3002 RMK AO1 SLP180
T00331017





000
SAUS41 KCAR 010258
MTRGNR
METAR KGNR 010256Z AUTO 03004KT 03/M02 A3004 RMK AO1 SLP186
T00331017 51003





000
SAUS41 KCAR 010157
MTRGNR
METAR KGNR 010156Z AUTO 32003KT 03/M02 A3004 RMK AO1 SLP187
T00281017





000
SAUS41 KCAR 010058
MTRGNR
METAR KGNR 010056Z AUTO 06004KT 03/M01 A3004 RMK AO1 SLP186
T00281011





000
SAUS41 KCAR 312357
MTRGNR
METAR KGNR 312356Z AUTO 07004KT 02/M02 A3003 RMK AO1 SLP186
T00221017 10061 20017 53007





000
SAUS41 KCAR 312258
MTRGNR
METAR KGNR 312256Z AUTO 03004KT 02/M02 A3003 RMK AO1 SLP185
T00221017





000
SAUS41 KCAR 312258
MTRGNR
METAR KGNR 312256Z AUTO 03004KT 02/M02 A3003 RMK AO1 SLP185
T00221017





000
SAUS41 KCAR 312157
MTRGNR
METAR KGNR 312156Z AUTO 05004KT 03/M02 A3001 RMK AO1 SLP178
T00281022





000
SAUS41 KCAR 312057
MTRGNR
METAR KGNR 312056Z AUTO 36003KT 04/M04 A3001 RMK AO1 SLP177
T00441044 53009





000
SAUS41 KCAR 311958
MTRGNR
METAR KGNR 311956Z AUTO 04005KT 06/M04 A2999 RMK AO1 SLP171
T00561039





000
SAUS41 KCAR 311857
MTRGNR
METAR KGNR 311856Z AUTO VRB04KT 05/M04 A2998 RMK AO1 SLP167
T00501039





000
SAUS41 KCAR 311757
MTRGNR
METAR KGNR 311756Z AUTO 00000KT 05/M04 A2998 RMK AO1 SLP166
T00501039 10056 21006 56007





000
SAUS41 KCAR 311657
MTRGNR
METAR KGNR 311656Z AUTO VRB03KT 04/M03 A2998 RMK AO1 SLP167
T00441028





000
SAUS41 KCAR 311657
MTRGNR
METAR KGNR 311656Z AUTO VRB03KT 04/M03 A2998 RMK AO1 SLP167
T00441028





000
SAUS41 KCAR 311558
MTRGNR
METAR KGNR 311556Z AUTO VRB03KT 05/M03 A2999 RMK AO1 SLP170
T00501033





000
SAUS41 KCAR 311457
MTRGNR
METAR KGNR 311456Z AUTO 32003KT 04/M03 A3000 RMK AO1 SLP173
T00441028 50004





000
SAUS41 KCAR 311358
MTRGNR
METAR KGNR 311356Z AUTO 36004KT 03/M01 A3001 RMK AO1 SLP176
T00331006





000
SAUS41 KCAR 311257
MTRGNR
METAR KGNR 311256Z AUTO 01003KT 02/M01 A3000 RMK AO1 SLP174
T00221006





000
SAUS41 KCAR 311157
MTRGNR
METAR KGNR 311156Z AUTO 34004KT M01/M03 A2999 RMK AO1 SLP171
T10061033 10022 21006 53013





000
SAUS41 KCAR 311058
MTRGNR
METAR KGNR 311056Z AUTO 00000KT 00/M02 A2997 RMK AO1 SLP164
T00001022





000
SAUS41 KCAR 310957
MTRGNR
METAR KGNR 310956Z AUTO 00000KT 01/M02 A2996 RMK AO1 SLP161
T00061017





000
SAUS41 KCAR 310858
MTRGNR
METAR KGNR 310856Z AUTO 00000KT 01/M02 A2995 RMK AO1 SLP155
T00061017 51005





000
SAUS41 KCAR 310757
MTRGNR
METAR KGNR 310756Z AUTO 00000KT 01/M01 A2994 RMK AO1 SLP152
T00111011





000
SAUS41 KCAR 310658
MTRGNR
METAR KGNR 310656Z AUTO 31003KT 02/M01 A2994 RMK AO1 SLP150
T00221006





000
SAUS41 KCAR 310557
MTRGNR
METAR KGNR 310556Z AUTO 31003KT 01/M01 A2993 RMK AO1 SLP149
T00111006 10044 20011 53005





000
SAUS41 KCAR 310458
MTRGNR
METAR KGNR 310456Z AUTO 00000KT 01/M02 A2992 RMK AO1 SLP146
T00111017 401000011





000
SAUS41 KCAR 310357
MTRGNR
METAR KGNR 310356Z AUTO 31003KT 02/M01 A2992 RMK AO1 SLP143
T00221011





000
SAUS41 KCAR 310357
MTRGNR
METAR KGNR 310356Z AUTO 31003KT 02/M01 A2992 RMK AO1 SLP143
T00221011





000
SAUS41 KCAR 310258
MTRGNR
METAR KGNR 310256Z AUTO VRB04KT 03/M01 A2992 RMK AO1 SLP143
T00281011 58001





000
SAUS41 KCAR 310157
MTRGNR
METAR KGNR 310156Z AUTO VRB05KT 03/M02 A2993 RMK AO1 SLP147
T00331017





000
SAUS41 KCAR 310058
MTRGNR
METAR KGNR 310056Z AUTO 34007KT 04/M01 A2992 RMK AO1 SLP146
T00391011





000
SAUS41 KCAR 302357
MTRGNR
METAR KGNR 302356Z AUTO 32006KT 04/M01 A2992 RMK AO1 SLP144
T00441011 10100 20044 51020





000
SAUS41 KCAR 302258
MTRGNR
METAR KGNR 302256Z AUTO VRB06KT 05/M01 A2990 RMK AO1 SLP137
T00501011





000
SAUS41 KCAR 302157
MTRGNR
METAR KGNR 302156Z AUTO VRB03KT 06/M01 A2988 RMK AO1 SLP131
T00561006





000
SAUS41 KCAR 302157
MTRGNR
METAR KGNR 302156Z AUTO VRB03KT 06/M01 A2988 RMK AO1 SLP131
T00561006





000
SAUS41 KCAR 302057
MTRGNR
METAR KGNR 302056Z AUTO VRB03KT 07/M01 A2986 RMK AO1 SLP122
T00721006 53015





000
SAUS41 KCAR 301958
MTRGNR
METAR KGNR 301956Z AUTO VRB05KT 08/M01 A2983 RMK AO1 SLP113
T00831011





000
SAUS41 KCAR 301857
MTRGNR
METAR KGNR 301856Z AUTO VRB05KT 10/01 A2982 RMK AO1 SLP106 T01000006





000
SAUS41 KCAR 301758
MTRGNR
METAR KGNR 301756Z AUTO VRB06KT 09/00 A2981 RMK AO1 SLP104 T00890000
10094 20050 56005





000
SAUS41 KCAR 301657
MTRGNR
METAR KGNR 301656Z AUTO VRB04KT 09/00 A2982 RMK AO1 SLP105 T00890000





000
SAUS41 KCAR 301657
MTRGNR
METAR KGNR 301656Z AUTO VRB04KT 09/00 A2982 RMK AO1 SLP105 T00890000





000
SAUS41 KCAR 301558
MTRGNR
METAR KGNR 301556Z AUTO VRB05KT 09/02 A2982 RMK AO1 SLP107 T00890017





000
SAUS41 KCAR 301457
MTRGNR
METAR KGNR 301456Z AUTO 31007G16KT 270V330 07/03 A2983 RMK AO1
SLP111 T00720028 51009





000
SAUS41 KCAR 301357
MTRGNR
METAR KGNR 301356Z AUTO VRB06KT 07/04 A2983 RMK AO1 SLP111 T00670039





000
SAUS41 KCAR 301257
MTRGNR
METAR KGNR 301256Z AUTO 00000KT 06/03 A2982 RMK AO1 SLP107 T00610033





000
SAUS41 KCAR 301157
MTRGNR
METAR KGNR 301156Z AUTO 00000KT 05/03 A2980 RMK AO1 SLP101 70019
T00500033 10056 20039 53013





000
SAUS41 KCAR 301057
MTRGNR
METAR KGNR 301056Z AUTO 00000KT 06/03 A2978 RMK AO1 SLP093 T00560028





000
SAUS41 KCAR 301057
MTRGNR
METAR KGNR 301056Z AUTO 00000KT 06/03 A2978 RMK AO1 SLP093 T00560028





000
SAUS41 KCAR 300957
MTRGNR
METAR KGNR 300956Z AUTO VRB04KT 05/03 A2977 RMK AO1 SLP088 T00500028





000
SAUS41 KCAR 300858
MTRGNR
METAR KGNR 300856Z AUTO 31003KT 04/02 A2976 RMK AO1 SLP087 T00390017
53009





000
SAUS41 KCAR 300757
MTRGNR
METAR KGNR 300756Z AUTO VRB03KT 05/02 A2975 RMK AO1 SLP081 T00500022





000
SAUS41 KCAR 300658
MTRGNR
METAR KGNR 300656Z AUTO 00000KT 05/02 A2975 RMK AO1 SLP081 T00500022





000
SAUS41 KCAR 300557
MTRGNR
METAR KGNR 300556Z AUTO 00000KT 05/02 A2973 RMK AO1 SLP077 T00500017
10083 20039 58002





000
SAUS41 KCAR 300458
MTRGNR
METAR KGNR 300456Z AUTO VRB03KT 05/02 A2974 RMK AO1 SLP079 T00500022
401170039





000
SAUS41 KCAR 300458
MTRGNR
METAR KGNR 300456Z AUTO VRB03KT 05/02 A2974 RMK AO1 SLP079 T00500022
401170039





000
SAUS41 KCAR 300357
MTRGNR
METAR KGNR 300356Z AUTO 31003KT 06/02 A2974 RMK AO1 SLP081 T00560022





000
SAUS41 KCAR 300258
MTRGNR
METAR KGNR 300256Z AUTO VRB03KT 06/04 A2974 RMK AO1 SLP080 T00610039
50002





000
SAUS41 KCAR 300157
MTRGNR
METAR KGNR 300156Z AUTO VRB04KT 07/06 A2974 RMK AO1 SLP081 T00670056





000
SAUS41 KCAR 300058
MTRGNR
METAR KGNR 300056Z AUTO 00000KT 08/06 A2973 RMK AO1 SLP077 T00780061





000
SAUS41 KCAR 292357
MTRGNR
METAR KGNR 292356Z AUTO 32003KT 08/07 A2973 RMK AO1 SLP077 P0002
60011 T00830072 10117 20083 50006





000
SAUS41 KCAR 292258
MTRGNR
METAR KGNR 292256Z AUTO VRB03KT 09/08 A2975 RMK AO1 SLP083 P0003
T00890083





000
SAUS41 KCAR 292157
MTRGNR
METAR KGNR 292156Z AUTO 32004KT 11/11 A2972 RMK AO1 SLP071 P0001
T01110106





000
SAUS41 KCAR 292057
MTRGNR
METAR KGNR 292056Z AUTO 00000KT 11/11 A2971 RMK AO1 SLP069 60005
T01110106 56005





000
SAUS41 KCAR 291958
MTRGNR
METAR KGNR 291956Z AUTO 00000KT 11/11 A2972 RMK AO1 SLP072 P0004
T01110106





000
SAUS41 KCAR 291857
MTRGNR
METAR KGNR 291856Z AUTO 00000KT 12/11 A2972 RMK AO1 SLP072 P0001
T01170111





000
SAUS41 KCAR 291758
MTRGNR
METAR KGNR 291756Z AUTO 00000KT 12/11 A2973 RMK AO1 SLP075 P0001
60008 T01170106 10117 20078 56015





000
SAUS41 KCAR 291657
MTRGNR
METAR KGNR 291656Z AUTO 00000KT 11/10 A2974 RMK AO1 SLP080 T01060100





000
SAUS41 KCAR 291558
MTRGNR
METAR KGNR 291556Z AUTO 00000KT 10/09 A2976 RMK AO1 SLP085 T01000094





000
SAUS41 KCAR 291457
MTRGNR
METAR KGNR 291456Z AUTO 21003KT 09/09 A2978 RMK AO1 SLP093 P0001
60007 T00940094 56008





000
SAUS41 KCAR 291358
MTRGNR
METAR KGNR 291356Z AUTO 00000KT 09/09 A2978 RMK AO1 SLP093 P0006
T00890089





000
SAUS41 KCAR 291257
MTRGNR
METAR KGNR 291256Z AUTO 13005KT 08/08 A2979 RMK AO1 SLP095 T00830078





000
SAUS41 KCAR 291157
MTRGNR
METAR KGNR 291156Z AUTO 12006KT 08/07 A2980 RMK AO1 SLP103 70002
T00780072 10078 20067 56012





    US Dept of Commerce
    National Oceanic and Atmospheric Administration
    National Weather Service
    1325 East West Highway
    Silver Spring, MD 20910
    Page Author: NWS Internet Services Team
Disclaimer
Information Quality
Credits
Glossary
Privacy Policy
Freedom of Information Act (FOIA)
About Us
Career Opportunities